sensor_id;sensor_type;location;lat;lon;timestamp;pressure;altitude;pressure_sealevel;temperature;humidity
24031;BME280;12240;51.142;22.486;2023-05-09T00:02:01;100677.63;;;1.54;100.00
24031;BME280;12240;51.142;22.486;2023-05-09T00:04:29;100671.91;;;1.45;100.00
24031;BME280;12240;51.142;22.486;2023-05-09T00:06:57;100666.00;;;1.40;100.00
24031;BME280;12240;51.142;22.486;2023-05-09T00:09:26;100663.56;;;1.35;100.00
24031;BME280;12240;51.142;22.486;2023-05-09T00:11:53;100659.28;;;1.33;100.00
24031;BME280;12240;51.142;22.486;2023-05-09T00:14:21;100662.03;;;1.30;100.00
24031;BME280;12240;51.142;22.486;2023-05-09T00:16:52;100656.00;;;1.28;100.00
24031;BME280;12240;51.142;22.486;2023-05-09T00:19:20;100657.88;;;1.26;100.00
24031;BME280;12240;51.142;22.486;2023-05-09T00:21:48;100657.53;;;1.33;100.00
24031;BME280;12240;51.142;22.486;2023-05-09T00:24:16;100647.63;;;1.40;100.00
24031;BME280;12240;51.142;22.486;2023-05-09T00:26:44;100654.25;;;1.28;100.00
24031;BME280;12240;51.142;22.486;2023-05-09T00:29:12;100655.25;;;1.26;100.00
24031;BME280;12240;51.142;22.486;2023-05-09T00:31:40;100665.09;;;1.19;100.00
24031;BME280;12240;51.142;22.486;2023-05-09T00:34:08;100666.22;;;1.13;100.00
24031;BME280;12240;51.142;22.486;2023-05-09T00:36:36;100659.31;;;1.11;100.00
24031;BME280;12240;51.142;22.486;2023-05-09T00:39:08;100655.91;;;1.09;100.00
24031;BME280;12240;51.142;22.486;2023-05-09T00:41:36;100663.19;;;1.02;100.00
24031;BME280;12240;51.142;22.486;2023-05-09T00:44:05;100652.09;;;0.96;100.00
24031;BME280;12240;51.142;22.486;2023-05-09T00:46:34;100656.66;;;0.91;100.00
24031;BME280;12240;51.142;22.486;2023-05-09T00:49:08;100658.41;;;0.90;100.00
24031;BME280;12240;51.142;22.486;2023-05-09T00:51:39;100655.00;;;0.88;100.00
24031;BME280;12240;51.142;22.486;2023-05-09T00:54:08;100656.00;;;0.86;100.00
24031;BME280;12240;51.142;22.486;2023-05-09T00:56:36;100650.03;;;0.82;100.00
24031;BME280;12240;51.142;22.486;2023-05-09T00:59:04;100651.72;;;0.83;100.00
24031;BME280;12240;51.142;22.486;2023-05-09T01:01:35;100658.66;;;0.84;100.00
24031;BME280;12240;51.142;22.486;2023-05-09T01:04:04;100652.75;;;0.79;100.00
24031;BME280;12240;51.142;22.486;2023-05-09T01:10:19;100666.91;;;0.75;100.00
24031;BME280;12240;51.142;22.486;2023-05-09T01:13:00;100653.66;;;0.78;100.00
24031;BME280;12240;51.142;22.486;2023-05-09T01:15:58;100657.38;;;0.73;100.00
24031;BME280;12240;51.142;22.486;2023-05-09T01:19:07;100660.88;;;0.73;100.00
24031;BME280;12240;51.142;22.486;2023-05-09T01:21:43;100666.03;;;0.75;100.00
24031;BME280;12240;51.142;22.486;2023-05-09T01:30:25;100658.53;;;0.66;100.00
24031;BME280;12240;51.142;22.486;2023-05-09T01:32:59;100661.09;;;0.67;100.00
24031;BME280;12240;51.142;22.486;2023-05-09T01:35:30;100666.44;;;0.64;100.00
24031;BME280;12240;51.142;22.486;2023-05-09T01:38:00;100665.66;;;0.62;100.00
24031;BME280;12240;51.142;22.486;2023-05-09T01:40:30;100669.38;;;0.57;100.00
24031;BME280;12240;51.142;22.486;2023-05-09T01:43:06;100666.84;;;0.54;100.00
24031;BME280;12240;51.142;22.486;2023-05-09T01:45:37;100666.13;;;0.50;100.00
24031;BME280;12240;51.142;22.486;2023-05-09T01:48:07;100665.28;;;0.50;100.00
24031;BME280;12240;51.142;22.486;2023-05-09T01:50:37;100662.94;;;0.42;100.00
24031;BME280;12240;51.142;22.486;2023-05-09T01:53:10;100667.50;;;0.37;100.00
24031;BME280;12240;51.142;22.486;2023-05-09T01:55:40;100664.22;;;0.32;100.00
24031;BME280;12240;51.142;22.486;2023-05-09T01:58:09;100668.66;;;0.30;100.00
24031;BME280;12240;51.142;22.486;2023-05-09T02:00:37;100662.53;;;0.30;100.00
24031;BME280;12240;51.142;22.486;2023-05-09T02:03:05;100664.50;;;0.25;100.00
24031;BME280;12240;51.142;22.486;2023-05-09T02:05:41;100669.78;;;0.23;100.00
24031;BME280;12240;51.142;22.486;2023-05-09T02:08:10;100662.47;;;0.31;100.00
24031;BME280;12240;51.142;22.486;2023-05-09T02:10:39;100663.22;;;0.35;100.00
24031;BME280;12240;51.142;22.486;2023-05-09T02:13:08;100662.66;;;0.27;100.00
24031;BME280;12240;51.142;22.486;2023-05-09T02:15:37;100661.94;;;0.23;100.00
24031;BME280;12240;51.142;22.486;2023-05-09T02:18:05;100656.06;;;0.17;100.00
24031;BME280;12240;51.142;22.486;2023-05-09T02:20:34;100657.88;;;0.15;100.00
24031;BME280;12240;51.142;22.486;2023-05-09T02:23:02;100658.84;;;0.12;100.00
24031;BME280;12240;51.142;22.486;2023-05-09T02:25:32;100658.91;;;0.11;100.00
24031;BME280;12240;51.142;22.486;2023-05-09T02:28:01;100661.56;;;0.09;100.00
24031;BME280;12240;51.142;22.486;2023-05-09T02:30:35;100660.00;;;0.05;100.00
24031;BME280;12240;51.142;22.486;2023-05-09T02:33:08;100656.47;;;0.06;100.00
24031;BME280;12240;51.142;22.486;2023-05-09T02:35:38;100657.47;;;0.02;100.00
24031;BME280;12240;51.142;22.486;2023-05-09T02:38:07;100655.03;;;-0.03;100.00
24031;BME280;12240;51.142;22.486;2023-05-09T02:40:35;100666.44;;;-0.05;100.00
24031;BME280;12240;51.142;22.486;2023-05-09T02:43:03;100654.22;;;-0.05;100.00
24031;BME280;12240;51.142;22.486;2023-05-09T02:45:31;100658.38;;;0.01;100.00
24031;BME280;12240;51.142;22.486;2023-05-09T02:47:59;100656.69;;;0.00;100.00
24031;BME280;12240;51.142;22.486;2023-05-09T02:50:28;100663.09;;;-0.09;100.00
24031;BME280;12240;51.142;22.486;2023-05-09T02:52:56;100656.09;;;-0.08;100.00
24031;BME280;12240;51.142;22.486;2023-05-09T02:55:24;100658.66;;;-0.07;100.00
24031;BME280;12240;51.142;22.486;2023-05-09T02:57:53;100654.22;;;-0.05;100.00
24031;BME280;12240;51.142;22.486;2023-05-09T03:00:39;100662.03;;;-0.03;100.00
24031;BME280;12240;51.142;22.486;2023-05-09T03:03:08;100663.94;;;-0.08;100.00
24031;BME280;12240;51.142;22.486;2023-05-09T03:05:36;100662.13;;;-0.06;100.00
24031;BME280;12240;51.142;22.486;2023-05-09T03:08:04;100664.69;;;-0.05;100.00
24031;BME280;12240;51.142;22.486;2023-05-09T03:10:34;100667.25;;;-0.03;100.00
24031;BME280;12240;51.142;22.486;2023-05-09T03:13:02;100666.19;;;0.03;100.00
24031;BME280;12240;51.142;22.486;2023-05-09T03:15:30;100654.03;;;0.02;100.00
24031;BME280;12240;51.142;22.486;2023-05-09T03:18:00;100667.00;;;0.05;100.00
24031;BME280;12240;51.142;22.486;2023-05-09T03:20:29;100666.06;;;0.06;100.00
24031;BME280;12240;51.142;22.486;2023-05-09T03:22:57;100661.63;;;0.08;100.00
24031;BME280;12240;51.142;22.486;2023-05-09T03:25:25;100657.94;;;0.13;100.00
24031;BME280;12240;51.142;22.486;2023-05-09T03:27:53;100667.44;;;0.16;100.00
24031;BME280;12240;51.142;22.486;2023-05-09T03:30:23;100658.81;;;0.14;100.00
24031;BME280;12240;51.142;22.486;2023-05-09T03:32:51;100661.31;;;0.17;100.00
24031;BME280;12240;51.142;22.486;2023-05-09T03:35:19;100667.84;;;0.28;100.00
24031;BME280;12240;51.142;22.486;2023-05-09T03:37:47;100665.06;;;0.33;100.00
24031;BME280;12240;51.142;22.486;2023-05-09T03:40:16;100670.94;;;0.39;100.00
24031;BME280;12240;51.142;22.486;2023-05-09T03:42:50;100667.25;;;0.43;100.00
24031;BME280;12240;51.142;22.486;2023-05-09T03:45:19;100663.63;;;0.47;100.00
24031;BME280;12240;51.142;22.486;2023-05-09T03:47:47;100669.66;;;0.49;100.00
24031;BME280;12240;51.142;22.486;2023-05-09T03:50:16;100674.78;;;0.52;100.00
24031;BME280;12240;51.142;22.486;2023-05-09T03:52:45;100668.53;;;0.56;100.00
24031;BME280;12240;51.142;22.486;2023-05-09T03:55:16;100669.25;;;0.60;100.00
24031;BME280;12240;51.142;22.486;2023-05-09T03:57:44;100665.38;;;0.70;100.00
24031;BME280;12240;51.142;22.486;2023-05-09T04:00:13;100668.53;;;0.78;100.00
24031;BME280;12240;51.142;22.486;2023-05-09T04:02:45;100670.06;;;0.83;100.00
24031;BME280;12240;51.142;22.486;2023-05-09T04:05:22;100665.81;;;1.02;100.00
24031;BME280;12240;51.142;22.486;2023-05-09T04:07:52;100671.47;;;1.13;100.00
24031;BME280;12240;51.142;22.486;2023-05-09T04:10:21;100669.53;;;1.18;100.00
24031;BME280;12240;51.142;22.486;2023-05-09T04:12:49;100670.97;;;1.26;100.00
24031;BME280;12240;51.142;22.486;2023-05-09T04:15:18;100669.63;;;1.37;100.00
24031;BME280;12240;51.142;22.486;2023-05-09T04:17:46;100671.91;;;1.45;100.00
24031;BME280;12240;51.142;22.486;2023-05-09T04:20:14;100666.28;;;1.54;100.00
24031;BME280;12240;51.142;22.486;2023-05-09T04:22:43;100674.13;;;1.74;100.00
24031;BME280;12240;51.142;22.486;2023-05-09T04:25:17;100680.41;;;2.30;100.00
24031;BME280;12240;51.142;22.486;2023-05-09T04:27:48;100677.69;;;2.87;100.00
24031;BME280;12240;51.142;22.486;2023-05-09T04:30:16;100664.16;;;3.47;100.00
24031;BME280;12240;51.142;22.486;2023-05-09T04:32:46;100671.13;;;4.00;100.00
24031;BME280;12240;51.142;22.486;2023-05-09T04:35:18;100674.81;;;4.61;100.00
24031;BME280;12240;51.142;22.486;2023-05-09T04:37:48;100675.25;;;4.53;100.00
24031;BME280;12240;51.142;22.486;2023-05-09T04:40:17;100672.47;;;4.72;100.00
24031;BME280;12240;51.142;22.486;2023-05-09T04:42:53;100665.53;;;5.16;100.00
24031;BME280;12240;51.142;22.486;2023-05-09T04:45:25;100656.44;;;5.51;100.00
24031;BME280;12240;51.142;22.486;2023-05-09T04:47:54;100654.59;;;5.97;100.00
24031;BME280;12240;51.142;22.486;2023-05-09T04:50:22;100651.78;;;6.28;100.00
24031;BME280;12240;51.142;22.486;2023-05-09T04:52:50;100648.81;;;6.75;100.00
24031;BME280;12240;51.142;22.486;2023-05-09T04:55:19;100648.53;;;7.06;100.00
24031;BME280;12240;51.142;22.486;2023-05-09T04:57:49;100639.41;;;7.37;100.00
24031;BME280;12240;51.142;22.486;2023-05-09T05:00:18;100640.69;;;7.70;100.00
24031;BME280;12240;51.142;22.486;2023-05-09T05:02:47;100631.88;;;7.95;100.00
24031;BME280;12240;51.142;22.486;2023-05-09T05:05:16;100628.84;;;8.26;100.00
24031;BME280;12240;51.142;22.486;2023-05-09T05:07:44;100625.59;;;8.59;100.00
24031;BME280;12240;51.142;22.486;2023-05-09T05:10:18;100626.06;;;9.12;100.00
24031;BME280;12240;51.142;22.486;2023-05-09T05:12:50;100613.44;;;9.51;100.00
24031;BME280;12240;51.142;22.486;2023-05-09T05:15:19;100605.06;;;9.44;100.00
24031;BME280;12240;51.142;22.486;2023-05-09T05:17:48;100593.50;;;9.56;100.00
24031;BME280;12240;51.142;22.486;2023-05-09T05:20:20;100590.75;;;9.69;100.00
24031;BME280;12240;51.142;22.486;2023-05-09T05:22:49;100591.88;;;9.88;100.00
24031;BME280;12240;51.142;22.486;2023-05-09T05:25:17;100587.09;;;10.15;100.00
24031;BME280;12240;51.142;22.486;2023-05-09T05:27:48;100587.91;;;10.05;100.00
24031;BME280;12240;51.142;22.486;2023-05-09T05:30:16;100590.59;;;10.27;100.00
24031;BME280;12240;51.142;22.486;2023-05-09T05:32:44;100584.78;;;10.44;100.00
24031;BME280;12240;51.142;22.486;2023-05-09T05:35:15;100571.16;;;10.80;100.00
24031;BME280;12240;51.142;22.486;2023-05-09T05:37:44;100571.81;;;10.73;100.00
24031;BME280;12240;51.142;22.486;2023-05-09T05:40:15;100563.81;;;10.62;100.00
24031;BME280;12240;51.142;22.486;2023-05-09T05:42:46;100568.66;;;10.56;100.00
24031;BME280;12240;51.142;22.486;2023-05-09T05:45:14;100557.06;;;10.35;100.00
24031;BME280;12240;51.142;22.486;2023-05-09T05:47:47;100563.13;;;10.48;100.00
24031;BME280;12240;51.142;22.486;2023-05-09T05:50:18;100557.19;;;10.99;100.00
24031;BME280;12240;51.142;22.486;2023-05-09T05:52:46;100545.50;;;10.79;100.00
24031;BME280;12240;51.142;22.486;2023-05-09T05:55:17;100544.56;;;10.69;100.00
24031;BME280;12240;51.142;22.486;2023-05-09T05:57:45;100539.69;;;10.85;100.00
24031;BME280;12240;51.142;22.486;2023-05-09T06:00:15;100540.22;;;11.00;100.00
24031;BME280;12240;51.142;22.486;2023-05-09T06:02:47;100543.19;;;11.17;100.00
24031;BME280;12240;51.142;22.486;2023-05-09T06:05:27;100530.22;;;11.13;100.00
24031;BME280;12240;51.142;22.486;2023-05-09T06:07:56;100531.25;;;11.01;100.00
24031;BME280;12240;51.142;22.486;2023-05-09T06:10:25;100535.16;;;10.97;100.00
24031;BME280;12240;51.142;22.486;2023-05-09T06:12:53;100532.09;;;11.01;100.00
24031;BME280;12240;51.142;22.486;2023-05-09T06:15:22;100537.56;;;11.31;100.00
24031;BME280;12240;51.142;22.486;2023-05-09T06:17:51;100541.41;;;11.38;100.00
24031;BME280;12240;51.142;22.486;2023-05-09T06:20:19;100543.78;;;11.62;100.00
24031;BME280;12240;51.142;22.486;2023-05-09T06:22:52;100545.28;;;11.55;100.00
24031;BME280;12240;51.142;22.486;2023-05-09T06:25:20;100539.78;;;11.88;100.00
24031;BME280;12240;51.142;22.486;2023-05-09T06:27:48;100541.31;;;11.91;100.00
24031;BME280;12240;51.142;22.486;2023-05-09T06:30:16;100538.00;;;11.98;100.00
24031;BME280;12240;51.142;22.486;2023-05-09T06:32:54;100539.63;;;12.20;100.00
24031;BME280;12240;51.142;22.486;2023-05-09T06:35:22;100540.69;;;12.38;100.00
24031;BME280;12240;51.142;22.486;2023-05-09T06:37:50;100527.97;;;12.60;100.00
24031;BME280;12240;51.142;22.486;2023-05-09T06:40:19;100528.63;;;12.53;100.00
24031;BME280;12240;51.142;22.486;2023-05-09T06:42:46;100525.38;;;12.49;100.00
24031;BME280;12240;51.142;22.486;2023-05-09T06:45:17;100541.34;;;12.79;100.00
24031;BME280;12240;51.142;22.486;2023-05-09T06:47:46;100535.03;;;13.00;100.00
24031;BME280;12240;51.142;22.486;2023-05-09T06:50:15;100539.72;;;13.36;100.00
24031;BME280;12240;51.142;22.486;2023-05-09T06:52:43;100534.19;;;13.56;100.00
24031;BME280;12240;51.142;22.486;2023-05-09T06:55:11;100533.16;;;13.76;100.00
24031;BME280;12240;51.142;22.486;2023-05-09T06:57:40;100530.34;;;13.78;100.00
24031;BME280;12240;51.142;22.486;2023-05-09T07:00:09;100523.81;;;13.99;100.00
24031;BME280;12240;51.142;22.486;2023-05-09T07:02:37;100510.28;;;14.01;100.00
24031;BME280;12240;51.142;22.486;2023-05-09T07:05:13;100516.19;;;14.04;100.00
24031;BME280;12240;51.142;22.486;2023-05-09T07:07:43;100520.72;;;14.31;100.00
24031;BME280;12240;51.142;22.486;2023-05-09T07:10:11;100527.53;;;14.53;100.00
24031;BME280;12240;51.142;22.486;2023-05-09T07:12:40;100521.91;;;14.73;100.00
24031;BME280;12240;51.142;22.486;2023-05-09T07:15:09;100515.53;;;14.20;94.17
24031;BME280;12240;51.142;22.486;2023-05-09T07:17:38;100506.34;;;14.23;91.11
24031;BME280;12240;51.142;22.486;2023-05-09T07:20:06;100511.38;;;14.08;89.90
24031;BME280;12240;51.142;22.486;2023-05-09T07:22:35;100508.66;;;13.81;90.47
24031;BME280;12240;51.142;22.486;2023-05-09T07:25:07;100512.75;;;14.49;92.50
24031;BME280;12240;51.142;22.486;2023-05-09T07:27:36;100505.47;;;14.59;90.43
24031;BME280;12240;51.142;22.486;2023-05-09T07:30:05;100509.41;;;15.35;89.41
24031;BME280;12240;51.142;22.486;2023-05-09T07:32:34;100502.06;;;15.37;87.97
24031;BME280;12240;51.142;22.486;2023-05-09T07:35:02;100503.44;;;15.05;85.57
24031;BME280;12240;51.142;22.486;2023-05-09T07:37:31;100503.38;;;14.80;87.24
24031;BME280;12240;51.142;22.486;2023-05-09T07:39:59;100492.59;;;14.45;84.03
24031;BME280;12240;51.142;22.486;2023-05-09T07:42:27;100498.25;;;14.86;85.29
24031;BME280;12240;51.142;22.486;2023-05-09T07:44:57;100489.78;;;15.34;83.35
24031;BME280;12240;51.142;22.486;2023-05-09T07:47:26;100510.34;;;14.90;85.24
24031;BME280;12240;51.142;22.486;2023-05-09T07:49:54;100506.00;;;15.42;83.44
24031;BME280;12240;51.142;22.486;2023-05-09T07:52:22;100504.81;;;15.45;80.33
24031;BME280;12240;51.142;22.486;2023-05-09T07:54:50;100502.13;;;15.45;80.38
24031;BME280;12240;51.142;22.486;2023-05-09T07:57:19;100509.66;;;14.88;77.63
24031;BME280;12240;51.142;22.486;2023-05-09T07:59:47;100491.94;;;14.78;75.61
24031;BME280;12240;51.142;22.486;2023-05-09T08:02:15;100489.34;;;15.03;75.36
24031;BME280;12240;51.142;22.486;2023-05-09T08:04:43;100494.66;;;15.13;71.69
24031;BME280;12240;51.142;22.486;2023-05-09T08:07:11;100485.69;;;15.04;72.01
24031;BME280;12240;51.142;22.486;2023-05-09T08:09:39;100474.97;;;15.04;70.23
24031;BME280;12240;51.142;22.486;2023-05-09T08:12:08;100483.06;;;15.48;72.35
24031;BME280;12240;51.142;22.486;2023-05-09T08:14:36;100476.56;;;15.15;68.95
24031;BME280;12240;51.142;22.486;2023-05-09T08:17:04;100475.78;;;15.40;67.93
24031;BME280;12240;51.142;22.486;2023-05-09T08:19:32;100476.72;;;16.08;67.92
24031;BME280;12240;51.142;22.486;2023-05-09T08:22:00;100467.94;;;15.72;67.24
24031;BME280;12240;51.142;22.486;2023-05-09T08:24:28;100480.91;;;15.34;68.91
24031;BME280;12240;51.142;22.486;2023-05-09T08:26:57;100474.13;;;15.65;68.69
24031;BME280;12240;51.142;22.486;2023-05-09T08:29:25;100482.19;;;15.30;68.48
24031;BME280;12240;51.142;22.486;2023-05-09T08:31:53;100476.16;;;15.71;68.42
24031;BME280;12240;51.142;22.486;2023-05-09T08:34:21;100458.28;;;15.62;64.59
24031;BME280;12240;51.142;22.486;2023-05-09T08:36:49;100465.88;;;15.23;64.91
24031;BME280;12240;51.142;22.486;2023-05-09T08:39:17;100471.28;;;16.00;68.79
24031;BME280;12240;51.142;22.486;2023-05-09T08:41:46;100463.34;;;15.90;65.30
24031;BME280;12240;51.142;22.486;2023-05-09T08:44:14;100443.66;;;15.82;61.38
24031;BME280;12240;51.142;22.486;2023-05-09T08:46:43;100456.38;;;15.72;63.90
24031;BME280;12240;51.142;22.486;2023-05-09T08:49:15;100454.56;;;15.11;61.65
24031;BME280;12240;51.142;22.486;2023-05-09T08:51:44;100458.66;;;15.92;64.69
24031;BME280;12240;51.142;22.486;2023-05-09T08:54:14;100443.84;;;15.88;61.32
24031;BME280;12240;51.142;22.486;2023-05-09T08:56:42;100452.56;;;16.24;62.57
24031;BME280;12240;51.142;22.486;2023-05-09T08:59:11;100449.19;;;16.56;62.16
24031;BME280;12240;51.142;22.486;2023-05-09T09:01:40;100445.44;;;16.07;61.56
24031;BME280;12240;51.142;22.486;2023-05-09T09:04:09;100432.38;;;16.12;60.33
24031;BME280;12240;51.142;22.486;2023-05-09T09:06:40;100429.53;;;15.80;60.75
24031;BME280;12240;51.142;22.486;2023-05-09T09:09:11;100447.91;;;16.34;63.52
24031;BME280;12240;51.142;22.486;2023-05-09T09:11:41;100438.31;;;17.29;63.77
24031;BME280;12240;51.142;22.486;2023-05-09T09:14:22;100426.53;;;17.06;59.74
24031;BME280;12240;51.142;22.486;2023-05-09T09:16:55;100420.81;;;16.93;58.20
24031;BME280;12240;51.142;22.486;2023-05-09T09:19:28;100413.41;;;16.71;58.64
24031;BME280;12240;51.142;22.486;2023-05-09T09:22:00;100425.72;;;17.06;58.16
24031;BME280;12240;51.142;22.486;2023-05-09T09:24:29;100425.34;;;17.09;58.61
24031;BME280;12240;51.142;22.486;2023-05-09T09:27:05;100416.59;;;16.91;57.88
24031;BME280;12240;51.142;22.486;2023-05-09T09:29:33;100420.59;;;17.43;57.90
24031;BME280;12240;51.142;22.486;2023-05-09T09:32:04;100418.63;;;17.21;56.32
24031;BME280;12240;51.142;22.486;2023-05-09T09:34:32;100425.47;;;17.64;57.46
24031;BME280;12240;51.142;22.486;2023-05-09T09:37:00;100431.09;;;17.06;58.21
24031;BME280;12240;51.142;22.486;2023-05-09T09:39:28;100434.41;;;17.08;57.25
24031;BME280;12240;51.142;22.486;2023-05-09T09:42:09;100426.22;;;17.09;56.24
24031;BME280;12240;51.142;22.486;2023-05-09T09:44:40;100433.94;;;16.88;56.40
24031;BME280;12240;51.142;22.486;2023-05-09T09:47:09;100432.72;;;17.39;56.77
24031;BME280;12240;51.142;22.486;2023-05-09T09:49:45;100437.06;;;17.72;57.87
24031;BME280;12240;51.142;22.486;2023-05-09T09:52:22;100428.56;;;16.88;55.91
24031;BME280;12240;51.142;22.486;2023-05-09T09:54:56;100419.97;;;17.09;55.06
24031;BME280;12240;51.142;22.486;2023-05-09T09:57:36;100434.41;;;17.40;57.17
24031;BME280;12240;51.142;22.486;2023-05-09T10:00:05;100425.50;;;17.23;56.43
24031;BME280;12240;51.142;22.486;2023-05-09T10:05:19;100418.50;;;17.85;55.41
24031;BME280;12240;51.142;22.486;2023-05-09T10:08:00;100412.06;;;16.67;55.37
24031;BME280;12240;51.142;22.486;2023-05-09T10:10:32;100418.44;;;16.82;56.84
24031;BME280;12240;51.142;22.486;2023-05-09T10:13:06;100416.94;;;16.96;57.22
24031;BME280;12240;51.142;22.486;2023-05-09T10:15:35;100421.16;;;17.47;57.33
24031;BME280;12240;51.142;22.486;2023-05-09T10:18:26;100408.94;;;17.83;55.73
24031;BME280;12240;51.142;22.486;2023-05-09T10:20:56;100402.28;;;17.30;54.47
24031;BME280;12240;51.142;22.486;2023-05-09T10:23:30;100407.00;;;17.28;56.47
24031;BME280;12240;51.142;22.486;2023-05-09T10:26:07;100404.72;;;17.80;56.30
24031;BME280;12240;51.142;22.486;2023-05-09T10:28:41;100394.00;;;17.64;54.88
24031;BME280;12240;51.142;22.486;2023-05-09T10:31:14;100390.72;;;17.14;53.39
24031;BME280;12240;51.142;22.486;2023-05-09T10:33:47;100385.97;;;17.40;54.66
24031;BME280;12240;51.142;22.486;2023-05-09T10:36:20;100388.50;;;17.25;53.92
24031;BME280;12240;51.142;22.486;2023-05-09T10:38:54;100394.75;;;18.58;53.58
24031;BME280;12240;51.142;22.486;2023-05-09T10:41:23;100382.81;;;18.22;51.57
24031;BME280;12240;51.142;22.486;2023-05-09T10:43:55;100383.56;;;18.38;52.75
24031;BME280;12240;51.142;22.486;2023-05-09T10:46:25;100383.41;;;17.55;52.41
24031;BME280;12240;51.142;22.486;2023-05-09T10:48:54;100368.81;;;17.88;51.12
24031;BME280;12240;51.142;22.486;2023-05-09T10:51:23;100379.53;;;18.65;51.83
24031;BME280;12240;51.142;22.486;2023-05-09T10:53:51;100366.09;;;18.80;51.01
24031;BME280;12240;51.142;22.486;2023-05-09T10:56:33;100386.50;;;19.19;53.22
24031;BME280;12240;51.142;22.486;2023-05-09T11:02:03;100375.78;;;18.66;51.42
24031;BME280;12240;51.142;22.486;2023-05-09T11:04:32;100348.72;;;17.60;50.30
24031;BME280;12240;51.142;22.486;2023-05-09T11:07:00;100379.41;;;18.28;52.84
24031;BME280;12240;51.142;22.486;2023-05-09T11:09:36;100372.38;;;18.19;52.49
24031;BME280;12240;51.142;22.486;2023-05-09T11:12:11;100369.81;;;17.95;52.80
24031;BME280;12240;51.142;22.486;2023-05-09T11:14:45;100364.72;;;18.00;52.44
24031;BME280;12240;51.142;22.486;2023-05-09T11:22:21;100355.75;;;18.38;51.22
24031;BME280;12240;51.142;22.486;2023-05-09T11:27:27;100353.81;;;18.77;50.48
24031;BME280;12240;51.142;22.486;2023-05-09T11:29:58;100344.25;;;18.89;51.05
24031;BME280;12240;51.142;22.486;2023-05-09T11:32:31;100347.34;;;19.01;51.23
24031;BME280;12240;51.142;22.486;2023-05-09T11:35:10;100349.66;;;18.89;52.03
24031;BME280;12240;51.142;22.486;2023-05-09T11:37:46;100353.69;;;19.59;53.66
24031;BME280;12240;51.142;22.486;2023-05-09T11:40:20;100340.75;;;19.03;54.78
24031;BME280;12240;51.142;22.486;2023-05-09T11:42:51;100329.44;;;19.22;51.49
24031;BME280;12240;51.142;22.486;2023-05-09T11:45:31;100332.22;;;18.77;50.17
24031;BME280;12240;51.142;22.486;2023-05-09T11:48:00;100328.94;;;18.44;50.10
24031;BME280;12240;51.142;22.486;2023-05-09T11:50:30;100334.13;;;18.91;51.57
24031;BME280;12240;51.142;22.486;2023-05-09T11:52:58;100318.75;;;18.54;50.68
24031;BME280;12240;51.142;22.486;2023-05-09T11:55:26;100320.19;;;18.42;49.67
24031;BME280;12240;51.142;22.486;2023-05-09T11:57:58;100325.44;;;18.36;50.71
24031;BME280;12240;51.142;22.486;2023-05-09T12:00:27;100316.66;;;18.34;48.82
24031;BME280;12240;51.142;22.486;2023-05-09T12:02:55;100307.78;;;18.03;48.72
24031;BME280;12240;51.142;22.486;2023-05-09T12:05:24;100313.22;;;18.48;49.74
24031;BME280;12240;51.142;22.486;2023-05-09T12:07:53;100307.34;;;18.67;49.61
24031;BME280;12240;51.142;22.486;2023-05-09T12:10:22;100301.13;;;19.04;48.94
24031;BME280;12240;51.142;22.486;2023-05-09T12:12:52;100300.75;;;19.50;49.45
24031;BME280;12240;51.142;22.486;2023-05-09T12:15:23;100284.56;;;19.50;49.17
24031;BME280;12240;51.142;22.486;2023-05-09T12:18:03;100296.56;;;19.19;49.93
24031;BME280;12240;51.142;22.486;2023-05-09T12:20:47;100291.19;;;19.33;49.84
24031;BME280;12240;51.142;22.486;2023-05-09T12:23:20;100288.66;;;18.80;50.41
24031;BME280;12240;51.142;22.486;2023-05-09T12:25:57;100287.50;;;19.12;50.32
24031;BME280;12240;51.142;22.486;2023-05-09T12:28:26;100278.81;;;19.53;50.03
24031;BME280;12240;51.142;22.486;2023-05-09T12:30:54;100286.94;;;18.65;50.92
24031;BME280;12240;51.142;22.486;2023-05-09T12:33:23;100279.28;;;18.91;50.29
24031;BME280;12240;51.142;22.486;2023-05-09T12:36:09;100267.38;;;18.85;48.08
24031;BME280;12240;51.142;22.486;2023-05-09T12:38:38;100272.59;;;19.01;49.10
24031;BME280;12240;51.142;22.486;2023-05-09T12:41:10;100255.22;;;19.62;46.77
24031;BME280;12240;51.142;22.486;2023-05-09T12:43:59;100261.78;;;18.72;47.32
24031;BME280;12240;51.142;22.486;2023-05-09T12:46:28;100258.25;;;20.09;48.78
24031;BME280;12240;51.142;22.486;2023-05-09T12:48:57;100249.81;;;19.62;47.19
24031;BME280;12240;51.142;22.486;2023-05-09T12:51:26;100253.69;;;18.87;47.44
24031;BME280;12240;51.142;22.486;2023-05-09T12:53:54;100243.56;;;19.18;47.11
24031;BME280;12240;51.142;22.486;2023-05-09T12:56:33;100245.75;;;20.50;47.69
24031;BME280;12240;51.142;22.486;2023-05-09T12:59:01;100228.47;;;20.72;45.97
24031;BME280;12240;51.142;22.486;2023-05-09T13:01:29;100224.31;;;20.49;47.98
24031;BME280;12240;51.142;22.486;2023-05-09T13:04:05;100229.78;;;19.42;48.94
24031;BME280;12240;51.142;22.486;2023-05-09T13:06:34;100241.19;;;19.73;49.53
24031;BME280;12240;51.142;22.486;2023-05-09T13:09:14;100237.69;;;19.58;50.94
24031;BME280;12240;51.142;22.486;2023-05-09T13:11:44;100250.25;;;20.01;51.70
24031;BME280;12240;51.142;22.486;2023-05-09T13:14:14;100246.75;;;20.22;51.41
24031;BME280;12240;51.142;22.486;2023-05-09T13:16:43;100222.44;;;19.07;48.54
24031;BME280;12240;51.142;22.486;2023-05-09T13:19:12;100225.44;;;19.12;49.32